createdAt,value
2023-10-21T00:00:30.933Z,41.88
2023-10-21T00:02:57.692Z,42.90
2023-10-21T00:05:26.041Z,43.08
2023-10-21T00:07:52.748Z,42.75
2023-10-21T00:10:19.364Z,42.20
2023-10-21T00:12:46.551Z,43.67
2023-10-21T00:15:14.062Z,42.13
2023-10-21T00:17:41.302Z,45.15
2023-10-21T00:20:08.625Z,42.25
2023-10-21T00:22:37.029Z,46.20
2023-10-21T00:25:05.395Z,43.65
2023-10-21T00:27:32.165Z,44.92
2023-10-21T00:29:58.823Z,44.67
2023-10-21T00:32:25.387Z,46.50
2023-10-21T00:34:51.973Z,45.65
2023-10-21T00:37:18.483Z,47.88
2023-10-21T00:39:45.823Z,46.72
2023-10-21T00:42:13.605Z,47.08
2023-10-21T00:44:40.234Z,46.10
2023-10-21T00:47:06.896Z,47.75
2023-10-21T00:49:33.645Z,48.00
2023-10-21T00:52:01.335Z,50.55
2023-10-21T00:54:28.685Z,49.35
2023-10-21T00:56:55.712Z,49.75
2023-10-21T00:59:23.900Z,45.42
2023-10-21T01:01:50.961Z,48.17
2023-10-21T01:04:18.306Z,46.20
2023-10-21T01:06:45.190Z,48.70
2023-10-21T01:09:11.857Z,49.80
2023-10-21T01:11:38.447Z,47.55
2023-10-21T01:14:05.114Z,49.50
2023-10-21T01:16:31.718Z,48.50
2023-10-21T01:18:58.308Z,48.88
2023-10-21T01:21:25.611Z,49.80
2023-10-21T01:23:52.256Z,50.08
2023-10-21T01:26:20.571Z,49.45
2023-10-21T01:28:47.096Z,49.55
2023-10-21T01:31:14.003Z,49.80
2023-10-21T01:33:40.729Z,48.55
2023-10-21T01:36:07.402Z,47.95
2023-10-21T01:38:33.956Z,50.17
2023-10-21T01:41:00.579Z,49.92
2023-10-21T01:43:27.067Z,51.28
2023-10-21T01:45:53.620Z,53.13
2023-10-21T01:48:20.195Z,49.13
2023-10-21T01:50:46.806Z,49.33
2023-10-21T01:53:13.344Z,50.38
2023-10-21T01:55:39.870Z,50.95
2023-10-21T01:58:06.433Z,50.58
2023-10-21T02:00:33.943Z,53.40
2023-10-21T02:03:00.910Z,50.97
2023-10-21T02:09:16.668Z,49.65
2023-10-21T02:11:43.288Z,51.03
2023-10-21T02:14:09.988Z,50.60
2023-10-21T02:16:36.541Z,49.72
2023-10-21T02:19:03.043Z,49.72
2023-10-21T02:21:29.765Z,49.47
2023-10-21T02:23:56.298Z,47.63
2023-10-21T02:26:23.055Z,46.53
2023-10-21T02:28:49.542Z,49.40
2023-10-21T02:31:16.945Z,47.03
2023-10-21T02:33:44.423Z,46.83
2023-10-21T02:36:12.729Z,46.30
2023-10-21T02:38:39.226Z,45.60
2023-10-21T02:41:06.823Z,48.58
2023-10-21T02:43:33.860Z,47.65
2023-10-21T02:46:13.868Z,46.65
2023-10-21T02:48:41.429Z,47.63
2023-10-21T02:51:15.981Z,49.05
2023-10-21T02:53:44.076Z,48.40
2023-10-21T02:56:12.387Z,51.05
2023-10-21T02:58:38.966Z,49.17
2023-10-21T03:01:13.133Z,48.17
2023-10-21T03:03:40.535Z,45.63
2023-10-21T03:06:07.476Z,48.53
2023-10-21T03:08:34.735Z,48.55
2023-10-21T03:11:04.931Z,49.60
2023-10-21T03:13:32.324Z,49.20
2023-10-21T03:15:59.291Z,48.00
2023-10-21T03:18:26.837Z,50.83
2023-10-21T03:20:53.931Z,46.35
2023-10-21T03:23:21.317Z,46.63
2023-10-21T03:26:00.451Z,45.80
2023-10-21T03:28:29.925Z,46.33
2023-10-21T03:31:00.714Z,47.60
2023-10-21T03:33:28.600Z,34.45
2023-10-21T03:35:57.875Z,46.75
2023-10-21T03:38:25.163Z,45.28
2023-10-21T03:41:12.657Z,44.17
2023-10-21T03:43:39.654Z,43.90
2023-10-21T03:46:08.876Z,46.05
2023-10-21T03:48:36.827Z,45.85
2023-10-21T03:51:08.078Z,43.53
2023-10-21T03:53:35.053Z,47.63
2023-10-21T03:56:02.549Z,44.72
2023-10-21T03:58:30.021Z,48.00
2023-10-21T04:00:58.430Z,46.70
2023-10-21T04:03:26.449Z,49.50
2023-10-21T04:05:54.568Z,51.55
2023-10-21T04:08:21.946Z,52.38
2023-10-21T04:10:49.610Z,51.90
2023-10-21T04:13:16.338Z,49.65
2023-10-21T04:15:43.394Z,50.55
2023-10-21T04:18:10.477Z,49.17
2023-10-21T04:20:37.250Z,51.53
2023-10-21T04:23:03.991Z,49.30
2023-10-21T04:25:30.846Z,47.22
2023-10-21T04:27:57.958Z,47.72
2023-10-21T04:30:25.142Z,45.70
2023-10-21T04:32:52.250Z,47.85
2023-10-21T04:35:19.890Z,47.30
2023-10-21T04:37:46.759Z,46.88
2023-10-21T04:40:14.644Z,47.30
2023-10-21T04:42:42.106Z,45.30
2023-10-21T04:45:09.977Z,44.78
2023-10-21T04:47:37.655Z,45.67
2023-10-21T04:50:05.346Z,46.85
2023-10-21T04:52:32.410Z,45.53
2023-10-21T04:54:59.465Z,45.45
2023-10-21T04:57:27.005Z,46.50
2023-10-21T04:59:53.723Z,46.83
2023-10-21T05:02:21.525Z,51.13
2023-10-21T05:04:50.404Z,46.95
2023-10-21T05:07:18.084Z,44.72
2023-10-21T05:09:44.880Z,45.83
2023-10-21T05:12:11.755Z,42.72
2023-10-21T05:14:39.256Z,46.13
2023-10-21T05:17:07.399Z,42.78
2023-10-21T05:19:34.026Z,51.30
2023-10-21T05:22:01.021Z,43.75
2023-10-21T05:24:28.661Z,43.03
2023-10-21T05:26:55.801Z,43.45
2023-10-21T05:29:22.401Z,45.03
2023-10-21T05:31:50.463Z,45.78
2023-10-21T05:34:19.853Z,44.15
2023-10-21T05:36:47.401Z,47.42
2023-10-21T05:39:14.535Z,46.63
2023-10-21T05:41:41.780Z,49.10
2023-10-21T05:44:09.285Z,45.00
2023-10-21T05:46:36.032Z,45.42
2023-10-21T05:49:04.891Z,50.30
2023-10-21T05:51:32.129Z,45.90
2023-10-21T05:53:59.130Z,44.70
2023-10-21T05:56:26.316Z,48.15
2023-10-21T05:58:53.137Z,49.15
2023-10-21T06:01:19.951Z,46.35
2023-10-21T06:03:47.830Z,43.95
2023-10-21T06:06:14.620Z,43.25
2023-10-21T06:08:41.470Z,43.88
2023-10-21T06:11:09.422Z,49.55
2023-10-21T06:13:36.502Z,49.28
2023-10-21T06:16:04.000Z,47.75
2023-10-21T06:18:30.655Z,49.58
2023-10-21T06:20:57.372Z,48.22
2023-10-21T06:23:23.997Z,49.60
2023-10-21T06:25:51.458Z,47.92
2023-10-21T06:28:17.957Z,41.63
2023-10-21T06:30:44.494Z,43.90
2023-10-21T06:33:12.725Z,42.58
2023-10-21T06:35:40.320Z,43.47
2023-10-21T06:38:08.568Z,44.47
2023-10-21T06:40:49.637Z,41.97
2023-10-21T06:43:18.943Z,42.95
2023-10-21T06:45:46.570Z,44.58
2023-10-21T06:48:13.431Z,42.70
2023-10-21T06:50:40.221Z,43.03
2023-10-21T06:53:07.393Z,40.40
2023-10-21T06:55:46.158Z,37.70
2023-10-21T06:58:13.310Z,39.25
2023-10-21T07:00:40.621Z,40.85
2023-10-21T07:03:08.644Z,36.95
2023-10-21T07:05:36.614Z,37.50
2023-10-21T07:08:03.600Z,36.58
2023-10-21T07:10:31.968Z,37.13
2023-10-21T07:12:59.987Z,36.95
2023-10-21T07:15:30.251Z,37.58
2023-10-21T07:17:58.993Z,36.08
2023-10-21T07:20:29.706Z,34.95
2023-10-21T07:22:56.444Z,35.47
2023-10-21T07:25:24.834Z,33.55
2023-10-21T07:27:52.027Z,33.22
2023-10-21T07:30:19.282Z,32.38
2023-10-21T07:32:46.745Z,34.78
2023-10-21T07:35:13.293Z,33.28
2023-10-21T07:37:39.837Z,32.60
2023-10-21T07:40:08.563Z,31.90
2023-10-21T07:42:35.164Z,30.25
2023-10-21T07:45:01.886Z,30.23
2023-10-21T07:47:28.839Z,29.65
2023-10-21T07:49:56.459Z,31.52
2023-10-21T07:52:23.930Z,29.92
2023-10-21T07:54:50.673Z,31.67
2023-10-21T07:57:17.489Z,29.80
2023-10-21T07:59:45.154Z,28.77
2023-10-21T08:02:11.713Z,27.88
2023-10-21T08:04:38.654Z,26.90
2023-10-21T08:07:06.134Z,26.55
2023-10-21T08:09:32.792Z,26.25
2023-10-21T08:11:59.397Z,24.42
2023-10-21T08:14:28.302Z,24.85
2023-10-21T08:16:55.729Z,23.88
2023-10-21T08:19:23.785Z,21.35
2023-10-21T08:21:51.100Z,23.42
2023-10-21T08:24:17.699Z,22.77
2023-10-21T08:26:46.052Z,24.58
2023-10-21T08:29:12.605Z,24.20
2023-10-21T08:31:39.115Z,25.02
2023-10-21T08:34:10.578Z,26.33
2023-10-21T08:36:37.318Z,26.77
2023-10-21T08:39:08.316Z,26.35
2023-10-21T08:41:42.251Z,23.77
2023-10-21T08:44:09.515Z,25.42
2023-10-21T08:46:36.554Z,24.15
2023-10-21T08:49:05.085Z,23.63
2023-10-21T08:51:36.549Z,24.45
2023-10-21T08:54:04.726Z,23.92
2023-10-21T08:56:33.470Z,23.58
2023-10-21T08:59:01.800Z,21.65
2023-10-21T09:01:28.407Z,18.17
2023-10-21T09:03:57.173Z,17.13
2023-10-21T09:06:24.933Z,17.65
2023-10-21T09:08:51.668Z,17.80
2023-10-21T09:11:21.979Z,18.48
2023-10-21T09:13:50.139Z,17.17
2023-10-21T09:16:25.481Z,16.95
2023-10-21T09:19:04.660Z,16.33
2023-10-21T09:21:42.237Z,17.60
2023-10-21T09:24:14.281Z,16.05
2023-10-21T09:26:42.611Z,17.67
2023-10-21T09:29:14.234Z,16.67
2023-10-21T09:31:53.582Z,17.58
2023-10-21T09:34:30.859Z,16.83
2023-10-21T09:37:00.160Z,16.42
2023-10-21T09:39:34.047Z,15.75
2023-10-21T09:42:01.769Z,14.43
2023-10-21T09:44:29.148Z,14.35
2023-10-21T09:46:57.269Z,14.15
2023-10-21T09:49:25.758Z,13.73
2023-10-21T09:52:12.018Z,14.48
2023-10-21T09:54:47.283Z,13.68
2023-10-21T09:57:14.027Z,13.13
2023-10-21T09:59:41.608Z,12.07
2023-10-21T10:02:08.919Z,12.63
2023-10-21T10:04:39.075Z,11.55
2023-10-21T10:07:14.514Z,11.43
2023-10-21T10:09:44.518Z,10.75
2023-10-21T10:12:23.507Z,9.18
2023-10-21T10:14:50.598Z,8.57
2023-10-21T10:17:49.669Z,8.80
2023-10-21T10:20:26.289Z,7.85
2023-10-21T10:23:09.747Z,7.97
2023-10-21T10:25:40.834Z,7.45
2023-10-21T10:28:17.738Z,7.05
2023-10-21T10:30:45.329Z,6.80
2023-10-21T10:33:16.661Z,6.80
2023-10-21T10:35:51.068Z,6.35
2023-10-21T10:38:37.921Z,5.95
2023-10-21T10:41:19.959Z,5.70
2023-10-21T10:44:03.287Z,4.60
2023-10-21T10:46:31.659Z,4.82
2023-10-21T10:49:06.680Z,4.65
2023-10-21T10:51:44.633Z,3.20
2023-10-21T10:54:18.504Z,2.78
2023-10-21T10:56:46.961Z,2.15
2023-10-21T10:59:19.843Z,1.33
2023-10-21T11:02:02.134Z,1.40
2023-10-21T11:04:31.290Z,1.30
2023-10-21T11:06:58.218Z,1.45
2023-10-21T11:09:31.872Z,0.93
2023-10-21T11:12:10.043Z,1.10
2023-10-21T11:14:38.126Z,0.80
2023-10-21T11:17:06.232Z,0.80
2023-10-21T11:19:33.903Z,0.90
2023-10-21T11:22:01.608Z,0.82
2023-10-21T11:24:28.266Z,1.00
2023-10-21T11:26:55.618Z,0.80
2023-10-21T11:29:23.950Z,0.45
2023-10-21T11:31:51.096Z,0.90
2023-10-21T11:34:20.692Z,1.00
2023-10-21T11:36:49.585Z,0.60
2023-10-21T11:39:17.579Z,0.47
2023-10-21T11:41:47.703Z,0.80
2023-10-21T11:44:16.544Z,0.65
2023-10-21T11:46:43.646Z,1.10
2023-10-21T11:49:18.206Z,0.50
2023-10-21T11:51:48.154Z,0.85
2023-10-21T11:54:35.204Z,0.57
2023-10-21T11:57:04.764Z,0.60
2023-10-21T11:59:59.635Z,0.70
2023-10-21T12:02:44.697Z,1.05
2023-10-21T12:05:13.813Z,0.75
2023-10-21T12:07:58.667Z,1.40
2023-10-21T12:10:25.195Z,0.77
2023-10-21T12:13:10.764Z,0.50
2023-10-21T12:15:52.535Z,0.90
2023-10-21T12:18:28.210Z,0.60
2023-10-21T12:21:13.461Z,0.50
2023-10-21T12:23:58.603Z,0.60
2023-10-21T12:26:53.987Z,1.10
2023-10-21T12:29:32.547Z,0.98
2023-10-21T12:32:04.651Z,0.55
2023-10-21T12:34:33.728Z,0.60
2023-10-21T12:37:07.551Z,0.88
2023-10-21T12:39:47.162Z,0.55
2023-10-21T12:42:29.671Z,0.60
2023-10-21T12:44:58.666Z,0.60
2023-10-21T12:47:26.844Z,0.65
2023-10-21T12:49:56.825Z,0.70
2023-10-21T12:52:24.622Z,0.98
2023-10-21T12:54:52.915Z,0.55
2023-10-21T12:57:19.966Z,0.77
2023-10-21T12:59:47.066Z,0.88
2023-10-21T13:02:13.706Z,1.35
2023-10-21T13:04:42.124Z,1.70
2023-10-21T13:07:10.258Z,1.40
2023-10-21T13:09:39.112Z,2.00
2023-10-21T13:12:10.770Z,1.40
2023-10-21T13:14:39.923Z,1.08
2023-10-21T13:17:09.994Z,0.82
2023-10-21T13:19:36.976Z,0.55
2023-10-21T13:22:07.011Z,0.98
2023-10-21T13:24:36.522Z,0.80
2023-10-21T13:27:07.354Z,0.80
2023-10-21T13:29:34.324Z,1.10
2023-10-21T13:32:02.125Z,1.00
2023-10-21T13:34:28.710Z,0.73
2023-10-21T13:36:55.615Z,0.93
2023-10-21T13:39:23.592Z,1.10
2023-10-21T13:41:50.281Z,1.00
2023-10-21T13:44:17.754Z,1.30
2023-10-21T13:46:44.408Z,0.82
2023-10-21T13:49:17.630Z,0.77
2023-10-21T13:51:48.011Z,1.30
2023-10-21T13:54:15.467Z,1.20
2023-10-21T13:56:43.091Z,0.82
2023-10-21T13:59:14.111Z,1.25
2023-10-21T14:01:43.183Z,1.05
2023-10-21T14:05:06.107Z,0.90
2023-10-21T14:07:32.587Z,1.30
2023-10-21T14:09:59.329Z,1.00
2023-10-21T14:12:25.934Z,0.57
2023-10-21T14:14:52.497Z,0.88
2023-10-21T14:17:18.955Z,0.50
2023-10-21T14:19:45.477Z,0.60
2023-10-21T14:22:11.967Z,1.27
2023-10-21T14:24:40.312Z,1.10
2023-10-21T14:27:08.990Z,0.80
2023-10-21T14:29:37.926Z,1.10
2023-10-21T14:32:05.738Z,1.08
2023-10-21T14:34:32.258Z,1.50
2023-10-21T14:36:59.071Z,1.45
2023-10-21T14:39:25.595Z,1.00
2023-10-21T14:44:27.753Z,1.77
2023-10-21T14:46:54.247Z,1.20
2023-10-21T14:49:22.511Z,1.45
2023-10-21T14:51:50.142Z,0.93
2023-10-21T14:54:16.836Z,1.10
2023-10-21T14:56:43.551Z,0.80
2023-10-21T14:59:10.837Z,1.20
2023-10-21T15:01:37.589Z,1.02
2023-10-21T15:04:04.638Z,2.08
2023-10-21T15:06:31.685Z,1.20
2023-10-21T15:08:58.456Z,1.17
2023-10-21T15:11:25.102Z,1.40
2023-10-21T15:13:54.882Z,1.10
2023-10-21T15:16:22.150Z,1.50
2023-10-21T15:18:48.796Z,1.10
2023-10-21T15:21:16.904Z,0.90
2023-10-21T15:23:44.029Z,1.52
2023-10-21T15:26:17.476Z,1.35
2023-10-21T15:28:45.769Z,1.17
2023-10-21T15:31:12.751Z,1.05
2023-10-21T15:33:40.478Z,1.30
2023-10-21T15:36:07.504Z,1.38
2023-10-21T15:38:34.910Z,0.85
2023-10-21T15:41:01.419Z,1.10
2023-10-21T15:43:27.889Z,1.50
2023-10-21T15:46:01.388Z,1.52
2023-10-21T15:48:32.167Z,1.30
2023-10-21T15:51:09.213Z,4.45
2023-10-21T15:53:35.836Z,1.80
2023-10-21T15:56:02.406Z,1.38
2023-10-21T15:58:29.019Z,2.50
2023-10-21T16:00:55.683Z,2.10
2023-10-21T16:03:22.528Z,1.67
2023-10-21T16:05:49.270Z,1.80
2023-10-21T16:08:16.199Z,1.65
2023-10-21T16:10:42.698Z,1.83
2023-10-21T16:13:09.252Z,2.38
2023-10-21T16:15:35.925Z,2.08
2023-10-21T16:18:02.767Z,2.10
2023-10-21T16:20:29.303Z,2.63
2023-10-21T16:22:55.778Z,2.20
2023-10-21T16:25:22.265Z,2.40
2023-10-21T16:27:49.406Z,2.90
2023-10-21T16:30:16.080Z,3.33
2023-10-21T16:32:43.235Z,3.58
2023-10-21T16:35:13.166Z,4.35
2023-10-21T16:37:39.701Z,3.67
2023-10-21T16:40:08.982Z,3.67
2023-10-21T16:42:35.521Z,4.55
2023-10-21T16:45:02.830Z,7.30
2023-10-21T16:47:29.449Z,10.65
2023-10-21T16:49:55.930Z,8.90
2023-10-21T16:52:22.525Z,7.25
2023-10-21T16:54:50.757Z,5.03
2023-10-21T16:57:17.286Z,4.05
2023-10-21T16:59:43.806Z,3.92
2023-10-21T17:02:11.185Z,3.50
2023-10-21T17:04:38.654Z,14.73
2023-10-21T17:07:05.737Z,15.65
2023-10-21T17:09:34.749Z,6.65
2023-10-21T17:12:02.224Z,5.60
2023-10-21T17:14:28.841Z,3.60
2023-10-21T17:16:55.564Z,5.00
2023-10-21T17:19:22.093Z,3.63
2023-10-21T17:21:48.651Z,3.35
2023-10-21T17:24:16.347Z,3.33
2023-10-21T17:26:42.953Z,3.05
2023-10-21T17:29:11.098Z,4.93
2023-10-21T17:31:37.739Z,3.50
2023-10-21T17:34:04.496Z,3.75
2023-10-21T17:36:31.181Z,3.55
2023-10-21T17:38:57.730Z,3.28
2023-10-21T17:41:24.267Z,3.63
2023-10-21T17:43:53.375Z,3.70
2023-10-21T17:46:20.148Z,3.83
2023-10-21T17:48:49.178Z,4.47
2023-10-21T17:51:18.925Z,5.03
2023-10-21T17:53:46.879Z,4.50
2023-10-21T17:56:13.657Z,3.95
2023-10-21T17:58:40.143Z,4.35
2023-10-21T18:01:07.539Z,4.03
2023-10-21T18:03:35.320Z,4.50
2023-10-21T18:06:01.942Z,6.10
2023-10-21T18:08:28.705Z,4.70
2023-10-21T18:10:55.181Z,13.20
2023-10-21T18:13:21.688Z,6.68
2023-10-21T18:15:48.378Z,5.63
2023-10-21T18:18:15.041Z,5.55
2023-10-21T18:20:41.547Z,4.55
2023-10-21T18:23:08.105Z,4.68
2023-10-21T18:25:34.584Z,4.43
2023-10-21T18:28:01.341Z,4.20
2023-10-21T18:30:28.143Z,4.15
2023-10-21T18:32:54.699Z,4.00
2023-10-21T18:35:21.220Z,5.03
2023-10-21T18:37:47.818Z,5.20
2023-10-21T18:40:15.484Z,4.75
2023-10-21T18:42:42.127Z,4.47
2023-10-21T18:45:08.859Z,4.55
2023-10-21T18:47:35.487Z,4.45
2023-10-21T18:50:02.142Z,4.47
2023-10-21T18:52:29.024Z,4.35
2023-10-21T18:54:56.370Z,4.57
2023-10-21T18:57:24.910Z,5.32
2023-10-21T18:59:54.537Z,4.85
2023-10-21T19:02:21.931Z,4.50
2023-10-21T19:04:49.426Z,3.83
2023-10-21T19:07:16.135Z,4.13
2023-10-21T19:09:43.585Z,5.10
2023-10-21T19:12:10.272Z,4.60
2023-10-21T19:14:37.268Z,7.25
2023-10-21T19:17:04.600Z,4.43
2023-10-21T19:19:31.797Z,5.40
2023-10-21T19:21:59.485Z,4.70
2023-10-21T19:24:26.931Z,4.03
2023-10-21T19:26:53.553Z,5.45
2023-10-21T19:29:20.182Z,4.65
2023-10-21T19:31:48.036Z,4.30
2023-10-21T19:34:14.722Z,4.30
2023-10-21T19:36:41.693Z,5.22
2023-10-21T19:39:08.218Z,5.80
2023-10-21T19:41:36.335Z,5.93
2023-10-21T19:44:14.841Z,5.97
2023-10-21T19:46:51.684Z,5.30
2023-10-21T19:49:23.091Z,5.05
2023-10-21T19:51:50.008Z,4.90
2023-10-21T19:54:16.721Z,5.28
2023-10-21T19:56:43.431Z,4.35
2023-10-21T19:59:10.842Z,5.68
2023-10-21T20:01:37.457Z,5.38
2023-10-21T20:04:06.897Z,6.32
2023-10-21T20:06:33.804Z,5.40
2023-10-21T20:09:00.290Z,4.90
2023-10-21T20:11:26.767Z,5.13
2023-10-21T20:13:53.251Z,5.35
2023-10-21T20:16:22.343Z,6.65
2023-10-21T20:18:50.125Z,4.80
2023-10-21T20:21:17.645Z,5.20
2023-10-21T20:23:44.359Z,5.32
2023-10-21T20:26:12.641Z,4.72
2023-10-21T20:28:42.830Z,4.72
2023-10-21T20:31:11.003Z,5.25
2023-10-21T20:33:38.645Z,4.90
2023-10-21T20:36:06.750Z,4.55
2023-10-21T20:38:33.947Z,4.63
2023-10-21T20:41:11.572Z,5.00
2023-10-21T20:43:39.070Z,4.50
2023-10-21T20:46:07.179Z,4.55
2023-10-21T20:48:35.276Z,4.85
2023-10-21T20:51:02.049Z,4.28
2023-10-21T20:53:28.714Z,3.20
2023-10-21T20:55:55.294Z,4.80
2023-10-21T20:58:22.362Z,3.78
2023-10-21T21:00:49.177Z,5.25
2023-10-21T21:03:15.903Z,5.05
2023-10-21T21:05:42.464Z,5.68
2023-10-21T21:08:09.021Z,5.15
2023-10-21T21:10:37.692Z,5.32
2023-10-21T21:13:04.438Z,4.78
2023-10-21T21:15:31.354Z,5.68
2023-10-21T21:17:58.312Z,5.10
2023-10-21T21:20:25.337Z,5.90
2023-10-21T21:22:52.550Z,6.35
2023-10-21T21:25:20.598Z,6.90
2023-10-21T21:27:50.303Z,7.10
2023-10-21T21:30:17.970Z,6.63
2023-10-21T21:32:44.836Z,6.57
2023-10-21T21:35:11.418Z,5.80
2023-10-21T21:37:37.968Z,6.63
2023-10-21T21:40:05.676Z,6.28
2023-10-21T21:42:32.363Z,6.70
2023-10-21T21:44:58.942Z,6.50
2023-10-21T21:47:27.109Z,7.00
2023-10-21T21:49:53.756Z,6.20
2023-10-21T21:52:21.062Z,5.65
2023-10-21T21:54:48.194Z,6.40
2023-10-21T21:57:14.869Z,6.05
2023-10-21T21:59:47.114Z,7.03
2023-10-21T22:02:14.951Z,6.45
2023-10-21T22:04:45.701Z,7.30
2023-10-21T22:07:13.627Z,5.05
2023-10-21T22:09:41.396Z,6.93
2023-10-21T22:12:10.897Z,5.75
2023-10-21T22:14:38.390Z,6.38
2023-10-21T22:17:10.458Z,5.80
2023-10-21T22:19:37.652Z,5.97
2023-10-21T22:22:08.046Z,5.90
2023-10-21T22:24:35.579Z,5.95
2023-10-21T22:27:02.846Z,6.95
2023-10-21T22:29:36.338Z,6.38
2023-10-21T22:32:05.865Z,6.68
2023-10-21T22:34:32.435Z,7.28
2023-10-21T22:36:59.081Z,7.20
2023-10-21T22:39:26.021Z,7.22
2023-10-21T22:41:54.353Z,7.50
2023-10-21T22:44:21.723Z,7.07
2023-10-21T22:46:48.242Z,7.07
2023-10-21T22:49:14.797Z,8.93
2023-10-21T22:51:41.445Z,7.75
2023-10-21T22:54:10.908Z,8.18
2023-10-21T22:56:37.484Z,7.40
2023-10-21T22:59:04.978Z,7.90
2023-10-21T23:01:31.550Z,8.02
2023-10-21T23:04:01.106Z,8.02
2023-10-21T23:06:28.362Z,8.13
2023-10-21T23:08:57.234Z,8.02
2023-10-21T23:11:24.035Z,8.82
2023-10-21T23:13:50.576Z,8.73
2023-10-21T23:16:20.892Z,8.93
2023-10-21T23:18:48.629Z,9.27
2023-10-21T23:21:15.684Z,10.23
2023-10-21T23:23:42.484Z,9.85
2023-10-21T23:26:12.384Z,9.93
2023-10-21T23:28:39.213Z,10.07
2023-10-21T23:31:05.867Z,9.38
2023-10-21T23:33:35.739Z,9.55
2023-10-21T23:36:04.354Z,11.18
2023-10-21T23:38:31.101Z,10.63
2023-10-21T23:40:57.636Z,10.32
2023-10-21T23:43:24.129Z,11.02
2023-10-21T23:45:50.651Z,9.65
2023-10-21T23:48:17.333Z,10.80
2023-10-21T23:50:43.961Z,10.75
2023-10-21T23:53:11.294Z,9.57
2023-10-21T23:55:37.758Z,9.57
2023-10-21T23:58:04.316Z,9.10
